Shchel'yayur, Russia
Current Conditions -  °F | °C
As of 1:00 PM on Monday 20 Oct 2014 (Local Time) from UUYY Reporting Station
Clear Clear  
Wind Chill: 17°   Ceiling: Unl
Heat Index: 23°   Visibility: 6mi
Dew Point:   Wind: 4mph
Humidity: 54%   Direction: NA
Pressure: 29.83"   Gusts: NA
Location:  65.18°N, 53.27°E
Report Text: UUYY 201000Z VRB02MPS CAVOK M05/M13 Q1010 NOSIG 01CLRD61 RMKQFE748/0998
Loading
Personal Weather Stations






























Interactive Weather Map
Tropical Storm Tracking
New forecast layout! Learn more

10-Day Weather Forecast

Advertisements
Track Severe Weather on mobile